»·PEaware :: N132KT KSAN-KBTY

N132KT :: KSAN-KBTY

FLIGHT INFORMATION

Flight Status: Arrived
Operator: Privately registered:
United States
More flights under this callsign
Pilot: Keith S. (1)
Aircraft: BEECH AIRCRAFT BARON
(BE58)
More flights by this aircraft type
Origin: KSAN San Diego Intl-Lindbergh
United States
Destination: KBTY Beatty
United States
More flights between these airports :: More routes between these airports
Route:
File this flight plan on PilotEdge
Remarks:
Altitude:
(Current/Filed)
11,500ft
Speed:
(Current/Filed)
170kts
Departed: 13-Jan-20 06:27 AM
Arrived: 13-Jan-20 08:15 AM
Distance/Time
Traveled:
249nm/1:48
Distance/Time
To Go:
Arrived

Flight Plot

Page will automatically refresh every two minutes.


Map Options




Map Legend


Flown Route
Filed Route
Departure Airport
Arrival Airport
Navaid (VOR, NDB)
Fix

Horizontal Profiles

Position Reports

Time Latitude Longitude Heading Altitude Ground
Speed
13-Jan-20 06:20 32.730635 -117.190994 298 17ft 0kts
13-Jan-20 06:21 32.730635 -117.190994 298 17ft 0kts
13-Jan-20 06:22 32.730635 -117.190994 298 17ft 0kts
13-Jan-20 06:23 32.730635 -117.190994 298 17ft 0kts
13-Jan-20 06:24 32.730684 -117.191104 298 17ft 2kts
13-Jan-20 06:25 32.732624 -117.190081 104 17ft 12kts
13-Jan-20 06:26 32.733523 -117.189516 287 17ft 53kts
13-Jan-20 06:27 32.745942 -117.225096 296 1056ft 131kts
13-Jan-20 06:28 32.762823 -117.263946 324 2357ft 141kts
13-Jan-20 06:29 32.801304 -117.270828 356 3362ft 142kts
13-Jan-20 06:30 32.840886 -117.274796 356 4190ft 149kts
13-Jan-20 06:31 32.887843 -117.279206 356 4144ft 173kts
13-Jan-20 06:32 32.933944 -117.288982 342 4442ft 157kts
13-Jan-20 06:33 32.972928 -117.305163 341 5235ft 143kts
13-Jan-20 06:34 33.011069 -117.311771 12 5980ft 139kts
13-Jan-20 06:35 33.049892 -117.300064 20 6578ft 145kts
13-Jan-20 06:36 33.088961 -117.284138 20 7178ft 149kts
13-Jan-20 06:37 33.129694 -117.267380 19 7533ft 161kts
13-Jan-20 06:38 33.172584 -117.249704 17 7499ft 163kts
13-Jan-20 06:39 33.215373 -117.232098 17 7495ft 161kts
13-Jan-20 06:40 33.258032 -117.214494 17 7497ft 161kts
13-Jan-20 06:41 33.300639 -117.196887 17 7498ft 161kts
13-Jan-20 06:42 33.343326 -117.179228 17 7499ft 162kts
13-Jan-20 06:43 33.386489 -117.161354 17 7501ft 162kts
13-Jan-20 06:44 33.430030 -117.143305 17 7502ft 162kts
13-Jan-20 06:45 33.473342 -117.125331 17 7504ft 163kts
13-Jan-20 06:46 33.516479 -117.107411 17 7504ft 163kts
13-Jan-20 06:47 33.558881 -117.089647 13 7505ft 154kts
13-Jan-20 06:48 33.599335 -117.072912 13 7492ft 151kts
13-Jan-20 06:49 33.639301 -117.056275 13 7503ft 151kts
13-Jan-20 06:50 33.679255 -117.039614 13 7503ft 151kts
13-Jan-20 06:51 33.719454 -117.022830 13 7503ft 152kts
13-Jan-20 06:52 33.759981 -117.005892 13 7503ft 152kts
13-Jan-20 06:53 33.800112 -116.989103 13 7502ft 152kts
13-Jan-20 06:54 33.840432 -116.972218 13 7501ft 152kts
13-Jan-20 06:55 33.881009 -116.955208 13 7500ft 153kts
13-Jan-20 06:56 33.921446 -116.938228 13 7572ft 148kts
13-Jan-20 06:57 33.958553 -116.922593 12 8025ft 134kts
13-Jan-20 06:58 33.992805 -116.927517 342 8522ft 122kts
13-Jan-20 06:59 34.025586 -116.936232 342 9016ft 120kts
13-Jan-20 07:00 34.058201 -116.944243 342 9504ft 119kts
13-Jan-20 07:01 34.092849 -116.952542 342 9624ft 136kts
13-Jan-20 07:02 34.130543 -116.958263 18 9495ft 159kts
13-Jan-20 07:03 34.168338 -116.932759 19 9569ft 156kts
13-Jan-20 07:04 34.207055 -116.908415 18 9576ft 156kts
13-Jan-20 07:05 34.245814 -116.884389 18 9577ft 156kts
13-Jan-20 07:06 34.284602 -116.859069 23 9557ft 160kts
13-Jan-20 07:07 34.322832 -116.829958 23 9521ft 162kts
13-Jan-20 07:08 34.361526 -116.800313 22 9503ft 164kts
13-Jan-20 07:09 34.400244 -116.770598 22 9490ft 164kts
13-Jan-20 07:10 34.439066 -116.740775 22 9488ft 164kts
13-Jan-20 07:11 34.477721 -116.711042 22 9488ft 164kts
13-Jan-20 07:12 34.516473 -116.681200 22 9488ft 164kts
13-Jan-20 07:13 34.555426 -116.651169 22 9488ft 164kts
13-Jan-20 07:14 34.594019 -116.621384 22 9490ft 164kts
13-Jan-20 07:15 34.632671 -116.591518 22 9494ft 164kts
13-Jan-20 07:16 34.671404 -116.561554 22 9494ft 164kts
13-Jan-20 07:17 34.709954 -116.531698 22 9491ft 164kts
13-Jan-20 07:18 34.748663 -116.501687 22 9488ft 164kts
13-Jan-20 07:19 34.787428 -116.471600 22 9488ft 164kts
13-Jan-20 07:20 34.826021 -116.441611 22 9488ft 164kts
13-Jan-20 07:21 34.864768 -116.411469 22 9488ft 164kts
13-Jan-20 07:22 34.903442 -116.381375 23 9493ft 164kts
13-Jan-20 07:23 34.941754 -116.351505 24 9490ft 162kts
13-Jan-20 07:24 34.979609 -116.321957 25 9481ft 159kts
13-Jan-20 07:25 35.016768 -116.292922 26 9479ft 158kts
13-Jan-20 07:26 35.053723 -116.264004 26 9472ft 157kts
13-Jan-20 07:27 35.090473 -116.235218 26 9473ft 156kts
13-Jan-20 07:28 35.127135 -116.206476 26 9481ft 156kts
13-Jan-20 07:29 35.163903 -116.177619 26 9479ft 157kts
13-Jan-20 07:30 35.200868 -116.148576 26 9478ft 157kts
13-Jan-20 07:31 35.237661 -116.119637 26 9478ft 157kts
13-Jan-20 07:32 35.274548 -116.090592 26 9478ft 157kts
13-Jan-20 07:33 35.314088 -116.093858 338 9496ft 144kts
13-Jan-20 07:34 35.352328 -116.110330 337 9481ft 145kts
13-Jan-20 07:35 35.390559 -116.127117 337 9477ft 146kts
13-Jan-20 07:36 35.429182 -116.144109 338 9342ft 153kts
13-Jan-20 07:37 35.470131 -116.162130 338 9023ft 157kts
13-Jan-20 07:38 35.512789 -116.180930 339 8421ft 167kts
13-Jan-20 07:39 35.553789 -116.199010 338 8411ft 149kts
13-Jan-20 07:40 35.592344 -116.216037 338 8439ft 145kts
13-Jan-20 07:41 35.630489 -116.232900 338 8456ft 145kts
13-Jan-20 07:42 35.668777 -116.249843 338 8455ft 145kts
13-Jan-20 07:43 35.707247 -116.266884 338 8454ft 145kts
13-Jan-20 07:44 35.745585 -116.283883 338 8454ft 145kts
13-Jan-20 07:45 35.783832 -116.300853 338 8454ft 145kts
13-Jan-20 07:46 35.822341 -116.317962 338 8454ft 145kts
13-Jan-20 07:47 35.860756 -116.335044 338 8453ft 145kts
13-Jan-20 07:48 35.899059 -116.352098 338 8451ft 145kts
13-Jan-20 07:49 35.937405 -116.369193 338 8451ft 145kts
13-Jan-20 07:50 35.975683 -116.386277 338 8451ft 145kts
13-Jan-20 07:51 36.013942 -116.403359 338 8451ft 145kts
13-Jan-20 07:52 36.052116 -116.420404 337 8445ft 146kts
13-Jan-20 07:53 36.090580 -116.437621 337 8440ft 146kts
13-Jan-20 07:54 36.128867 -116.454778 336 8439ft 147kts
13-Jan-20 07:55 36.167687 -116.472195 336 8435ft 148kts
13-Jan-20 07:56 36.206670 -116.489705 336 8434ft 148kts
13-Jan-20 07:57 36.245739 -116.507263 336 8432ft 148kts
13-Jan-20 07:58 36.284831 -116.524849 335 8430ft 149kts
13-Jan-20 07:59 36.324058 -116.542516 335 8427ft 150kts
13-Jan-20 08:00 36.363465 -116.560293 335 8427ft 150kts
13-Jan-20 08:01 36.403033 -116.578156 335 8426ft 150kts
13-Jan-20 08:02 36.442409 -116.596093 339 8468ft 146kts
13-Jan-20 08:04 36.481155 -116.613491 338 8455ft 147kts
13-Jan-20 08:05 36.519624 -116.630909 338 8454ft 147kts
13-Jan-20 08:06 36.558115 -116.648356 338 8454ft 147kts
13-Jan-20 08:07 36.595065 -116.665125 338 8457ft 147kts
13-Jan-20 08:08 36.633793 -116.682719 338 8456ft 147kts
13-Jan-20 08:09 36.672333 -116.700244 338 8455ft 147kts
13-Jan-20 08:10 36.710904 -116.717803 338 8455ft 147kts
13-Jan-20 08:11 36.750735 -116.735962 338 8036ft 166kts
13-Jan-20 08:12 36.796996 -116.757064 339 6800ft 186kts
13-Jan-20 08:13 36.848366 -116.766202 354 4724ft 187kts
13-Jan-20 08:14 36.877221 -116.783241 251 3697ft 115kts
13-Jan-20 08:15 36.860111 -116.786346 359 3121ft 22kts
13-Jan-20 08:16 36.868612 -116.785273 89 3171ft 20kts
13-Jan-20 08:17 36.868018 -116.784152 176 3166ft 0kts

Navigation Log

Ident Type
Flight plan parsing failed, navigation log unavailable